createdAt,value
2023-03-17T00:01:08.334Z,101273.50
2023-03-17T00:04:12.655Z,101262.38
2023-03-17T00:07:17.323Z,101244.44
2023-03-17T00:10:23.841Z,101253.88
2023-03-17T00:13:27.224Z,101281.31
2023-03-17T00:16:34.986Z,101246.25
2023-03-17T00:19:37.722Z,101278.78
2023-03-17T00:22:41.030Z,101274.50
2023-03-17T00:25:45.428Z,101272.78
2023-03-17T00:28:48.537Z,101238.50
2023-03-17T00:31:51.394Z,101271.88
2023-03-17T00:34:58.511Z,101272.78
2023-03-17T00:38:01.174Z,101239.38
2023-03-17T00:41:04.585Z,101234.22
2023-03-17T00:44:07.163Z,101245.38
2023-03-17T00:47:11.987Z,101254.84
2023-03-17T00:50:18.360Z,101265.94
2023-03-17T00:53:23.986Z,101233.38
2023-03-17T00:56:27.106Z,101253.09
2023-03-17T00:59:37.348Z,101249.66
2023-03-17T01:02:39.949Z,101197.44
2023-03-17T01:05:42.738Z,101250.50
2023-03-17T01:08:45.288Z,101219.72
2023-03-17T01:11:49.268Z,101230.88
2023-03-17T01:14:58.165Z,101236.81
2023-03-17T01:18:02.892Z,101236.81
2023-03-17T01:21:06.752Z,101212.84
2023-03-17T01:24:09.762Z,101242.81
2023-03-17T01:27:12.691Z,101254.72
2023-03-17T01:30:26.218Z,101226.25
2023-03-17T01:33:29.214Z,101234.31
2023-03-17T01:36:31.816Z,101233.75
2023-03-17T01:39:34.432Z,101237.91
2023-03-17T01:42:37.389Z,101239.34
2023-03-17T01:46:36.879Z,101266.69
2023-03-17T01:49:40.096Z,101245.16
2023-03-17T01:52:42.783Z,101269.97
2023-03-17T01:55:48.405Z,101239.44
2023-03-17T01:58:54.148Z,101282.03
2023-03-17T02:02:03.444Z,101270.00
2023-03-17T02:05:09.986Z,101280.41
2023-03-17T02:08:14.945Z,101278.50
2023-03-17T02:11:17.898Z,101258.53
2023-03-17T02:14:20.572Z,101280.53
2023-03-17T02:17:25.803Z,101254.69
2023-03-17T02:20:28.573Z,101259.09
2023-03-17T02:23:31.896Z,101257.38
2023-03-17T02:26:36.808Z,101293.41
2023-03-17T02:29:40.540Z,101267.44
2023-03-17T02:32:44.271Z,101304.28
2023-03-17T02:35:46.986Z,101306.88
2023-03-17T02:38:52.944Z,101314.22
2023-03-17T02:41:56.113Z,101317.75
2023-03-17T02:44:58.830Z,101310.06
2023-03-17T02:48:01.611Z,101312.47
2023-03-17T02:51:04.613Z,101313.66
2023-03-17T02:54:07.407Z,101275.28
2023-03-17T02:57:10.031Z,101242.63
2023-03-17T03:00:14.371Z,101311.97
2023-03-17T03:03:18.019Z,101285.34
2023-03-17T03:06:20.951Z,101285.31
2023-03-17T03:09:24.302Z,101314.53
2023-03-17T03:12:27.059Z,101299.56
2023-03-17T03:15:29.674Z,101284.03
2023-03-17T03:18:33.032Z,101283.50
2023-03-17T03:21:36.791Z,101295.28
2023-03-17T03:24:39.368Z,101309.63
2023-03-17T03:27:41.951Z,101278.53
2023-03-17T03:30:46.968Z,101273.34
2023-03-17T03:33:49.679Z,101300.09
2023-03-17T03:36:52.234Z,101271.75
2023-03-17T03:39:54.882Z,101270.78
2023-03-17T03:42:57.490Z,101283.50
2023-03-17T03:46:00.252Z,101298.91
2023-03-17T03:49:02.898Z,101275.41
2023-03-17T03:52:06.730Z,101283.97
2023-03-17T03:55:09.681Z,101310.56
2023-03-17T03:58:12.399Z,101310.47
2023-03-17T04:01:15.066Z,101310.34
2023-03-17T04:04:17.906Z,101305.06
2023-03-17T04:07:21.506Z,101274.34
2023-03-17T04:10:24.276Z,101304.31
2023-03-17T04:13:27.241Z,101311.13
2023-03-17T04:16:29.994Z,101321.41
2023-03-17T04:19:32.650Z,101280.22
2023-03-17T04:22:35.311Z,101325.69
2023-03-17T04:25:38.171Z,101320.13
2023-03-17T04:28:41.010Z,101296.16
2023-03-17T04:31:43.740Z,101322.72
2023-03-17T04:34:46.378Z,101265.94
2023-03-17T04:37:49.895Z,101338.66
2023-03-17T04:40:53.176Z,101336.06
2023-03-17T04:43:55.910Z,101310.06
2023-03-17T04:46:58.576Z,101337.41
2023-03-17T04:50:01.661Z,101309.16
2023-03-17T04:53:04.334Z,101350.72
2023-03-17T04:56:07.191Z,101315.03
2023-03-17T04:59:10.284Z,101357.38
2023-03-17T05:02:12.985Z,101328.97
2023-03-17T05:05:15.823Z,101358.94
2023-03-17T05:08:18.707Z,101359.13
2023-03-17T05:11:21.337Z,101350.72
2023-03-17T05:14:24.013Z,101344.72
2023-03-17T05:17:26.596Z,101360.69
2023-03-17T05:20:29.437Z,101345.03
2023-03-17T05:23:32.781Z,101367.38
2023-03-17T05:26:35.538Z,101367.38
2023-03-17T05:29:38.303Z,101370.03
2023-03-17T05:32:41.011Z,101358.72
2023-03-17T05:35:43.829Z,101337.78
2023-03-17T05:38:46.751Z,101359.16
2023-03-17T05:41:50.520Z,101342.22
2023-03-17T05:44:53.522Z,101372.81
2023-03-17T05:47:56.876Z,101350.31
2023-03-17T05:51:00.319Z,101352.28
2023-03-17T05:54:03.027Z,101380.03
2023-03-17T05:57:05.635Z,101377.75
2023-03-17T06:00:09.476Z,101386.41
2023-03-17T06:03:13.966Z,101350.19
2023-03-17T06:06:16.631Z,101377.16
2023-03-17T06:09:19.380Z,101361.09
2023-03-17T06:12:22.330Z,101374.41
2023-03-17T06:15:25.784Z,101379.19
2023-03-17T06:18:28.469Z,101388.56
2023-03-17T06:21:31.355Z,101387.94
2023-03-17T06:24:34.218Z,101390.72
2023-03-17T06:27:38.034Z,101391.19
2023-03-17T06:30:41.065Z,101396.69
2023-03-17T06:33:43.963Z,101373.06
2023-03-17T06:36:46.794Z,101377.41
2023-03-17T06:39:49.687Z,101388.16
2023-03-17T06:42:53.305Z,101407.03
2023-03-17T06:45:55.927Z,101407.19
2023-03-17T06:48:59.423Z,101356.34
2023-03-17T06:52:02.056Z,101395.50
2023-03-17T06:55:06.365Z,101380.44
2023-03-17T06:58:10.715Z,101388.69
2023-03-17T07:01:14.659Z,101386.81
2023-03-17T07:04:17.639Z,101384.88
2023-03-17T07:07:21.230Z,101379.84
2023-03-17T07:10:24.906Z,101403.75
2023-03-17T07:13:28.123Z,101383.19
2023-03-17T07:16:30.959Z,101401.66
2023-03-17T07:19:35.152Z,101406.44
2023-03-17T07:22:38.125Z,101392.69
2023-03-17T07:25:43.666Z,101413.28
2023-03-17T07:28:46.729Z,101399.00
2023-03-17T07:31:49.991Z,101404.78
2023-03-17T07:34:53.087Z,101401.78
2023-03-17T07:37:55.735Z,101396.94
2023-03-17T07:40:58.341Z,101424.28
2023-03-17T07:44:01.902Z,101403.66
2023-03-17T07:47:04.593Z,101428.06
2023-03-17T07:50:07.856Z,101430.09
2023-03-17T07:53:10.995Z,101413.22
2023-03-17T07:56:14.346Z,101408.72
2023-03-17T07:59:17.562Z,101414.47
2023-03-17T08:02:21.266Z,101423.56
2023-03-17T08:05:24.259Z,101407.34
2023-03-17T08:08:28.271Z,101382.00
2023-03-17T08:11:31.176Z,101390.72
2023-03-17T08:14:33.895Z,101410.81
2023-03-17T08:17:37.371Z,101424.44
2023-03-17T08:20:40.828Z,101420.94
2023-03-17T08:23:43.917Z,101422.69
2023-03-17T08:26:49.735Z,101437.03
2023-03-17T08:29:52.367Z,101436.75
2023-03-17T08:32:55.081Z,101407.28
2023-03-17T08:35:57.776Z,101428.38
2023-03-17T08:39:01.215Z,101428.94
2023-03-17T08:42:04.830Z,101419.56
2023-03-17T08:45:07.853Z,101422.47
2023-03-17T08:48:10.495Z,101406.47
2023-03-17T08:51:14.091Z,101401.97
2023-03-17T08:54:18.031Z,101391.97
2023-03-17T08:57:20.880Z,101418.19
2023-03-17T09:00:23.720Z,101402.38
2023-03-17T09:03:27.119Z,101409.91
2023-03-17T09:06:30.344Z,101388.31
2023-03-17T09:09:36.656Z,101396.31
2023-03-17T09:12:39.715Z,101404.31
2023-03-17T09:15:42.396Z,101398.06
2023-03-17T09:18:46.750Z,101415.75
2023-03-17T09:21:50.402Z,101405.75
2023-03-17T09:24:53.386Z,101410.00
2023-03-17T09:27:55.976Z,101391.34
2023-03-17T09:31:03.604Z,101386.03
2023-03-17T09:34:06.461Z,101410.19
2023-03-17T09:37:10.008Z,101412.72
2023-03-17T09:40:17.258Z,101394.25
2023-03-17T09:43:26.058Z,101406.56
2023-03-17T09:46:46.887Z,101403.06
2023-03-17T09:49:52.496Z,101384.31
2023-03-17T09:52:57.387Z,101377.03
2023-03-17T09:56:05.695Z,101402.28
2023-03-17T09:59:36.979Z,101394.28
2023-03-17T10:02:39.647Z,101396.53
2023-03-17T10:05:42.348Z,101386.75
2023-03-17T10:08:54.914Z,101366.13
2023-03-17T10:12:18.631Z,101361.78
2023-03-17T10:15:27.945Z,101382.56
2023-03-17T10:18:39.299Z,101384.94
2023-03-17T10:21:50.361Z,101385.84
2023-03-17T10:24:57.859Z,101359.16
2023-03-17T10:28:09.004Z,101378.50
2023-03-17T10:31:17.677Z,101353.16
2023-03-17T10:34:27.617Z,101364.34
2023-03-17T10:37:36.659Z,101365.44
2023-03-17T10:40:39.755Z,101332.00
2023-03-17T10:43:47.325Z,101339.53
2023-03-17T10:46:55.576Z,101337.88
2023-03-17T10:50:03.734Z,101344.69
2023-03-17T10:53:09.432Z,101318.94
2023-03-17T10:56:23.593Z,101343.28
2023-03-17T11:02:45.897Z,101329.53
2023-03-17T11:05:55.599Z,101330.88
2023-03-17T11:09:07.617Z,101312.09
2023-03-17T11:12:34.216Z,101307.56
2023-03-17T11:15:42.436Z,101304.72
2023-03-17T11:18:47.322Z,101294.75
2023-03-17T11:22:10.087Z,101290.22
2023-03-17T11:25:17.449Z,101294.03
2023-03-17T11:28:25.084Z,101289.53
2023-03-17T11:31:34.956Z,101246.81
2023-03-17T11:34:56.875Z,101277.97
2023-03-17T11:38:22.399Z,101275.56
2023-03-17T11:41:27.858Z,101263.31
2023-03-17T11:44:57.837Z,101255.66
2023-03-17T11:48:15.212Z,101253.81
2023-03-17T11:51:27.656Z,101249.31
2023-03-17T11:54:33.452Z,101247.63
2023-03-17T11:57:41.226Z,101228.66
2023-03-17T12:01:09.122Z,101216.94
2023-03-17T12:04:19.047Z,101238.47
2023-03-17T12:07:29.098Z,101209.31
2023-03-17T12:10:39.071Z,101214.19
2023-03-17T12:13:46.763Z,101211.31
2023-03-17T12:17:00.803Z,101210.44
2023-03-17T12:20:07.156Z,101223.63
2023-03-17T12:23:32.246Z,101209.66
2023-03-17T12:26:44.500Z,101195.47
2023-03-17T12:29:52.637Z,101184.09
2023-03-17T12:33:16.013Z,101196.97
2023-03-17T12:36:19.089Z,101199.66
2023-03-17T12:39:28.293Z,101170.88
2023-03-17T12:42:38.630Z,101193.72
2023-03-17T12:45:50.855Z,101189.63
2023-03-17T12:48:56.479Z,101198.00
2023-03-17T12:52:20.158Z,101190.63
2023-03-17T12:55:27.057Z,101186.69
2023-03-17T12:58:38.980Z,101188.09
2023-03-17T13:01:46.032Z,101166.53
2023-03-17T13:05:03.851Z,101163.06
2023-03-17T13:08:11.032Z,101151.88
2023-03-17T13:11:14.805Z,101177.16
2023-03-17T13:14:43.963Z,101162.81
2023-03-17T13:17:46.899Z,101137.97
2023-03-17T13:21:10.439Z,101157.19
2023-03-17T13:24:15.877Z,101155.19
2023-03-17T13:27:30.972Z,101147.88
2023-03-17T13:30:36.541Z,101137.38
2023-03-17T13:33:50.155Z,101110.63
2023-03-17T13:37:13.963Z,101116.72
2023-03-17T13:40:25.483Z,101126.19
2023-03-17T13:43:52.743Z,101130.50
2023-03-17T13:46:55.552Z,101117.38
2023-03-17T13:50:04.042Z,101089.78
2023-03-17T13:53:11.819Z,101118.94
2023-03-17T13:56:21.894Z,101091.91
2023-03-17T13:59:39.381Z,101104.91
2023-03-17T14:02:44.783Z,101108.13
2023-03-17T14:05:52.817Z,101094.38
2023-03-17T14:09:00.829Z,101091.91
2023-03-17T14:12:17.741Z,101111.09
2023-03-17T14:15:48.568Z,101100.00
2023-03-17T14:19:11.987Z,101059.06
2023-03-17T14:22:23.870Z,101098.34
2023-03-17T14:25:37.746Z,101087.94
2023-03-17T14:28:40.650Z,101083.28
2023-03-17T14:31:48.574Z,101065.47
2023-03-17T14:34:56.379Z,101069.22
2023-03-17T14:38:00.275Z,101091.69
2023-03-17T14:41:27.144Z,101090.19
2023-03-17T14:44:43.745Z,101050.00
2023-03-17T14:47:47.052Z,101059.53
2023-03-17T14:50:55.589Z,101062.06
2023-03-17T14:54:01.682Z,101088.19
2023-03-17T14:57:14.793Z,101049.53
2023-03-17T15:00:49.810Z,101046.13
2023-03-17T15:04:24.001Z,101081.28
2023-03-17T15:07:36.689Z,101048.88
2023-03-17T15:10:43.507Z,101075.53
2023-03-17T15:13:46.498Z,101042.88
2023-03-17T15:16:52.491Z,101061.97
2023-03-17T15:19:58.202Z,101062.81
2023-03-17T15:23:25.026Z,101062.41
2023-03-17T15:26:34.342Z,101058.63
2023-03-17T15:29:36.925Z,101041.53
2023-03-17T15:32:39.932Z,101059.13
2023-03-17T15:35:42.506Z,101065.06
2023-03-17T15:38:45.319Z,101054.47
2023-03-17T15:41:47.880Z,101032.53
2023-03-17T15:44:51.577Z,101027.19
2023-03-17T15:47:55.436Z,101055.34
2023-03-17T15:51:00.269Z,101048.34
2023-03-17T15:54:03.039Z,101035.91
2023-03-17T15:57:06.251Z,101035.25
2023-03-17T16:00:10.462Z,101046.06
2023-03-17T16:03:32.864Z,101036.66
2023-03-17T16:06:35.786Z,101057.31
2023-03-17T16:09:38.376Z,101063.47
2023-03-17T16:12:41.771Z,101062.44
2023-03-17T16:15:50.958Z,101052.56
2023-03-17T16:18:53.788Z,101062.69
2023-03-17T16:21:57.510Z,101060.22
2023-03-17T16:25:00.111Z,101059.63
2023-03-17T16:28:14.246Z,101045.59
2023-03-17T16:31:20.972Z,101060.66
2023-03-17T16:34:24.261Z,101055.22
2023-03-17T16:37:26.848Z,101023.88
2023-03-17T16:40:37.947Z,101027.59
2023-03-17T16:43:44.248Z,101058.78
2023-03-17T16:46:47.368Z,101055.69
2023-03-17T16:49:50.137Z,101025.97
2023-03-17T16:52:52.839Z,101039.31
2023-03-17T16:55:55.752Z,101033.31
2023-03-17T16:58:58.345Z,101037.78
2023-03-17T17:02:02.400Z,101063.66
2023-03-17T17:05:12.905Z,101038.31
2023-03-17T17:08:15.911Z,101064.78
2023-03-17T17:11:19.503Z,101060.56
2023-03-17T17:14:22.055Z,101031.84
2023-03-17T17:17:24.747Z,101057.59
2023-03-17T17:20:31.030Z,101031.44
2023-03-17T17:23:34.311Z,101041.78
2023-03-17T17:26:36.874Z,101063.16
2023-03-17T17:29:39.886Z,101051.25
2023-03-17T17:32:42.862Z,101058.94
2023-03-17T17:35:46.779Z,101058.06
2023-03-17T17:38:51.375Z,101054.78
2023-03-17T17:41:54.027Z,101057.72
2023-03-17T17:44:56.782Z,101042.56
2023-03-17T17:47:59.524Z,101064.09
2023-03-17T17:51:02.457Z,101059.25
2023-03-17T17:54:06.363Z,101031.19
2023-03-17T17:57:11.761Z,101060.38
2023-03-17T18:00:17.274Z,101069.97
2023-03-17T18:03:24.640Z,101034.16
2023-03-17T18:06:27.259Z,101031.75
2023-03-17T18:09:32.060Z,101067.72
2023-03-17T18:12:35.563Z,101043.09
2023-03-17T18:15:38.705Z,101033.75
2023-03-17T18:18:43.378Z,101066.25
2023-03-17T18:21:47.157Z,101045.81
2023-03-17T18:24:50.244Z,101036.63
2023-03-17T18:27:55.065Z,101070.81
2023-03-17T18:31:07.127Z,101044.47
2023-03-17T18:34:34.404Z,101069.22
2023-03-17T18:37:37.514Z,101037.81
2023-03-17T18:40:41.928Z,101063.50
2023-03-17T18:43:45.081Z,101066.09
2023-03-17T18:46:48.542Z,101051.59
2023-03-17T18:49:52.401Z,101020.09
2023-03-17T18:52:56.029Z,101055.16
2023-03-17T18:55:59.436Z,101053.44
2023-03-17T18:59:02.327Z,101019.31
2023-03-17T19:02:05.295Z,101055.16
2023-03-17T19:05:08.858Z,101055.19
2023-03-17T19:08:15.284Z,101050.00
2023-03-17T19:11:20.172Z,101056.06
2023-03-17T19:14:22.741Z,101026.22
2023-03-17T19:17:25.600Z,101050.31
2023-03-17T19:20:28.598Z,100982.00
2023-03-17T19:23:32.302Z,101023.91
2023-03-17T19:26:35.552Z,101046.97
2023-03-17T19:29:38.451Z,101046.97
2023-03-17T19:32:41.335Z,101037.59
2023-03-17T19:35:44.642Z,101042.72
2023-03-17T19:38:47.511Z,101036.75
2023-03-17T19:41:55.058Z,101012.03
2023-03-17T19:44:57.994Z,101041.06
2023-03-17T19:48:01.086Z,101021.41
2023-03-17T19:51:05.067Z,101037.66
2023-03-17T19:54:09.782Z,101017.13
2023-03-17T19:57:14.118Z,101033.38
2023-03-17T20:00:18.400Z,101000.03
2023-03-17T20:03:23.130Z,101030.84
2023-03-17T20:06:27.341Z,101018.81
2023-03-17T20:09:31.992Z,101002.50
2023-03-17T20:12:38.113Z,101025.59
2023-03-17T20:15:42.110Z,101012.78
2023-03-17T20:18:45.354Z,100960.63
2023-03-17T20:21:48.485Z,101034.13
2023-03-17T20:24:51.690Z,101025.56
2023-03-17T20:27:55.167Z,100995.56
2023-03-17T20:31:00.093Z,100994.75
2023-03-17T20:34:03.324Z,101032.41
2023-03-17T20:37:05.991Z,101031.50
2023-03-17T20:40:10.786Z,101006.66
2023-03-17T20:43:13.464Z,101029.75
2023-03-17T20:46:24.745Z,101034.09
2023-03-17T20:49:27.903Z,101037.50
2023-03-17T20:52:30.839Z,101020.38
2023-03-17T20:55:33.702Z,101037.41
2023-03-17T20:58:36.619Z,101021.19
2023-03-17T21:01:40.379Z,101037.50
2023-03-17T21:04:46.829Z,101031.28
2023-03-17T21:07:50.145Z,101027.84
2023-03-17T21:10:53.607Z,101030.34
2023-03-17T21:13:56.834Z,101015.84
2023-03-17T21:17:01.424Z,101021.88
2023-03-17T21:20:06.428Z,101022.72
2023-03-17T21:23:09.468Z,100992.03
2023-03-17T21:26:12.719Z,101025.31
2023-03-17T21:29:15.408Z,101031.19
2023-03-17T21:32:18.390Z,101040.63
2023-03-17T21:35:22.092Z,101041.38
2023-03-17T21:38:27.529Z,100995.97
2023-03-17T21:41:33.877Z,101023.16
2023-03-17T21:44:37.282Z,101014.63
2023-03-17T21:47:41.320Z,101034.28
2023-03-17T21:50:44.420Z,101037.66
2023-03-17T21:53:48.038Z,101043.59
2023-03-17T21:56:51.504Z,101017.03
2023-03-17T21:59:54.048Z,101016.81
2023-03-17T22:02:56.807Z,101030.44
2023-03-17T22:05:59.424Z,101048.53
2023-03-17T22:09:04.515Z,101026.25
2023-03-17T22:12:07.987Z,101010.00
2023-03-17T22:15:11.042Z,101044.22
2023-03-17T22:18:14.176Z,101039.03
2023-03-17T22:21:16.756Z,101039.97
2023-03-17T22:24:21.821Z,101000.66
2023-03-17T22:27:24.530Z,101010.16
2023-03-17T22:30:27.183Z,101010.97
2023-03-17T22:33:30.166Z,101031.47
2023-03-17T22:36:33.354Z,101029.59
2023-03-17T22:39:36.006Z,101033.72
2023-03-17T22:42:38.819Z,100963.63
2023-03-17T22:45:41.445Z,101001.31
2023-03-17T22:48:46.180Z,101028.63
2023-03-17T22:51:50.169Z,100993.47
2023-03-17T22:54:52.742Z,101006.34
2023-03-17T22:57:55.410Z,101014.94
2023-03-17T23:00:58.090Z,100986.69
2023-03-17T23:04:01.224Z,101013.34
2023-03-17T23:07:04.113Z,100995.38
2023-03-17T23:10:10.759Z,100999.47
2023-03-17T23:13:13.743Z,100996.72
2023-03-17T23:16:17.289Z,100997.47
2023-03-17T23:19:20.675Z,101025.72
2023-03-17T23:22:23.629Z,101028.19
2023-03-17T23:25:26.645Z,101032.44
2023-03-17T23:28:29.227Z,101029.09
2023-03-17T23:31:32.250Z,101000.50
2023-03-17T23:34:34.904Z,101029.66
2023-03-17T23:37:37.490Z,100962.03
2023-03-17T23:40:40.160Z,101024.59
2023-03-17T23:43:42.985Z,100992.13
2023-03-17T23:46:46.505Z,101017.78
2023-03-17T23:49:49.260Z,100984.19
2023-03-17T23:52:52.202Z,101011.59
2023-03-17T23:55:55.012Z,100978.09
2023-03-17T23:58:57.910Z,101020.88
